sensor_id;sensor_type;location;lat;lon;timestamp;pressure;altitude;pressure_sealevel;temperature;humidity
9281;BME280;4679;47.966;7.958;2023-03-26T07:23:16;96036.44;;;9.42;72.45
9281;BME280;4679;47.966;7.958;2023-03-26T07:25:20;96022.13;;;9.48;72.40
9281;BME280;4679;47.966;7.958;2023-03-26T07:27:34;96014.22;;;9.63;72.41
9281;BME280;4679;47.966;7.958;2023-03-26T07:29:42;96016.84;;;9.94;72.80
9281;BME280;4679;47.966;7.958;2023-03-26T07:31:49;96004.13;;;10.11;72.14
9281;BME280;4679;47.966;7.958;2023-03-26T07:33:57;96003.31;;;10.31;70.86
9281;BME280;4679;47.966;7.958;2023-03-26T07:36:14;95999.31;;;10.48;70.97
9281;BME280;4679;47.966;7.958;2023-03-26T07:38:32;96009.63;;;10.50;70.53
9281;BME280;4679;47.966;7.958;2023-03-26T07:40:45;95997.41;;;10.59;70.71
9281;BME280;4679;47.966;7.958;2023-03-26T07:42:56;95996.53;;;10.74;70.71
9281;BME280;4679;47.966;7.958;2023-03-26T07:45:11;96006.88;;;10.80;70.30
9281;BME280;4679;47.966;7.958;2023-03-26T07:47:22;96018.28;;;10.81;70.51
9281;BME280;4679;47.966;7.958;2023-03-26T07:49:25;96017.25;;;10.72;70.29
9281;BME280;4679;47.966;7.958;2023-03-26T07:51:29;96026.81;;;10.68;70.25
9281;BME280;4679;47.966;7.958;2023-03-26T07:53:32;95998.13;;;10.75;69.93
9281;BME280;4679;47.966;7.958;2023-03-26T07:55:36;95997.06;;;10.76;69.77
9281;BME280;4679;47.966;7.958;2023-03-26T07:57:48;96007.41;;;10.82;69.85
9281;BME280;4679;47.966;7.958;2023-03-26T07:59:56;95988.03;;;10.77;70.12
9281;BME280;4679;47.966;7.958;2023-03-26T08:02:22;96030.50;;;10.72;69.84
9281;BME280;4679;47.966;7.958;2023-03-26T08:04:41;96044.88;;;10.55;70.18
9281;BME280;4679;47.966;7.958;2023-03-26T08:06:49;96069.34;;;10.02;71.65
9281;BME280;4679;47.966;7.958;2023-03-26T08:08:59;96066.91;;;9.65;71.97
9281;BME280;4679;47.966;7.958;2023-03-26T08:11:09;96089.69;;;9.45;72.63
9281;BME280;4679;47.966;7.958;2023-03-26T08:13:21;96097.53;;;9.20;73.09
9281;BME280;4679;47.966;7.958;2023-03-26T08:15:27;96099.56;;;8.98;72.71
9281;BME280;4679;47.966;7.958;2023-03-26T08:17:35;96087.63;;;8.85;73.89
9281;BME280;4679;47.966;7.958;2023-03-26T08:19:47;96111.09;;;8.76;74.01
9281;BME280;4679;47.966;7.958;2023-03-26T08:21:53;96107.38;;;8.72;74.22
9281;BME280;4679;47.966;7.958;2023-03-26T08:24:00;96099.97;;;8.74;74.08
9281;BME280;4679;47.966;7.958;2023-03-26T08:26:11;96102.38;;;8.76;73.95
9281;BME280;4679;47.966;7.958;2023-03-26T08:28:24;96108.44;;;8.76;74.36
9281;BME280;4679;47.966;7.958;2023-03-26T08:30:30;96106.91;;;8.80;73.67
9281;BME280;4679;47.966;7.958;2023-03-26T08:32:32;96109.53;;;8.80;74.58
9281;BME280;4679;47.966;7.958;2023-03-26T08:34:34;96102.41;;;8.86;74.63
9281;BME280;4679;47.966;7.958;2023-03-26T08:36:35;96105.66;;;9.03;74.30
9281;BME280;4679;47.966;7.958;2023-03-26T08:38:37;96122.97;;;9.26;73.88
9281;BME280;4679;47.966;7.958;2023-03-26T08:41:02;96084.94;;;9.58;73.29
9281;BME280;4679;47.966;7.958;2023-03-26T08:46:09;96080.97;;;9.96;73.62
9281;BME280;4679;47.966;7.958;2023-03-26T08:48:52;96074.63;;;10.17;72.38
9281;BME280;4679;47.966;7.958;2023-03-26T08:51:35;96071.47;;;10.35;72.44
9281;BME280;4679;47.966;7.958;2023-03-26T08:54:04;96071.97;;;10.52;72.57
9281;BME280;4679;47.966;7.958;2023-03-26T08:56:19;96092.09;;;10.64;71.20
9281;BME280;4679;47.966;7.958;2023-03-26T08:58:44;96072.97;;;10.72;71.35
9281;BME280;4679;47.966;7.958;2023-03-26T09:01:17;96090.47;;;10.78;71.88
9281;BME280;4679;47.966;7.958;2023-03-26T09:04:04;96082.44;;;10.93;70.90
9281;BME280;4679;47.966;7.958;2023-03-26T09:06:28;96091.75;;;10.85;70.67
9281;BME280;4679;47.966;7.958;2023-03-26T09:14:10;96102.78;;;11.23;70.71
9281;BME280;4679;47.966;7.958;2023-03-26T09:19:28;96080.59;;;10.93;70.55
9281;BME280;4679;47.966;7.958;2023-03-26T09:22:08;96091.78;;;10.80;70.39
9281;BME280;4679;47.966;7.958;2023-03-26T09:24:48;96098.44;;;10.73;70.45
9281;BME280;4679;47.966;7.958;2023-03-26T09:27:07;96084.31;;;10.87;70.27
9281;BME280;4679;47.966;7.958;2023-03-26T09:34:56;96079.78;;;11.52;68.74
9281;BME280;4679;47.966;7.958;2023-03-26T09:37:23;96082.59;;;11.76;68.51
9281;BME280;4679;47.966;7.958;2023-03-26T09:39:33;96088.03;;;11.95;68.41
9281;BME280;4679;47.966;7.958;2023-03-26T09:41:40;96075.16;;;12.07;67.26
9281;BME280;4679;47.966;7.958;2023-03-26T09:44:24;96070.06;;;12.16;67.05
9281;BME280;4679;47.966;7.958;2023-03-26T09:46:35;96064.72;;;12.21;66.69
9281;BME280;4679;47.966;7.958;2023-03-26T09:49:10;96065.13;;;12.33;67.26
9281;BME280;4679;47.966;7.958;2023-03-26T09:51:25;96064.75;;;12.45;66.15
9281;BME280;4679;47.966;7.958;2023-03-26T09:53:42;96047.09;;;12.78;65.42
9281;BME280;4679;47.966;7.958;2023-03-26T09:56:07;96070.91;;;12.93;65.12
9281;BME280;4679;47.966;7.958;2023-03-26T09:58:26;96058.91;;;13.14;64.70
9281;BME280;4679;47.966;7.958;2023-03-26T10:00:40;96056.38;;;13.28;64.81
9281;BME280;4679;47.966;7.958;2023-03-26T10:03:02;96069.41;;;13.29;64.13
9281;BME280;4679;47.966;7.958;2023-03-26T10:05:18;96056.97;;;13.44;63.52
9281;BME280;4679;47.966;7.958;2023-03-26T10:10:00;96054.22;;;13.49;62.99
9281;BME280;4679;47.966;7.958;2023-03-26T10:12:11;96065.56;;;13.59;62.55
9281;BME280;4679;47.966;7.958;2023-03-26T10:14:19;96049.41;;;13.69;62.27
9281;BME280;4679;47.966;7.958;2023-03-26T10:16:29;96056.22;;;13.76;61.87
9281;BME280;4679;47.966;7.958;2023-03-26T10:18:42;96059.78;;;13.71;61.63
9281;BME280;4679;47.966;7.958;2023-03-26T10:20:55;96094.13;;;13.91;61.03
9281;BME280;4679;47.966;7.958;2023-03-26T10:23:06;96056.94;;;14.00;60.79
9281;BME280;4679;47.966;7.958;2023-03-26T10:27:51;96048.91;;;14.19;59.87
9281;BME280;4679;47.966;7.958;2023-03-26T10:30:24;96064.56;;;14.39;59.43
9281;BME280;4679;47.966;7.958;2023-03-26T10:32:35;96076.25;;;14.43;58.92
9281;BME280;4679;47.966;7.958;2023-03-26T10:34:53;96066.31;;;14.30;59.12
9281;BME280;4679;47.966;7.958;2023-03-26T10:37:05;96066.09;;;13.75;59.70
9281;BME280;4679;47.966;7.958;2023-03-26T10:39:33;96076.47;;;13.39;59.68
9281;BME280;4679;47.966;7.958;2023-03-26T10:41:48;96069.31;;;13.16;60.28
9281;BME280;4679;47.966;7.958;2023-03-26T10:44:08;96084.59;;;13.05;60.12
9281;BME280;4679;47.966;7.958;2023-03-26T10:46:29;96073.09;;;13.33;59.25
9281;BME280;4679;47.966;7.958;2023-03-26T10:48:51;96068.84;;;13.70;58.42
9281;BME280;4679;47.966;7.958;2023-03-26T10:51:08;96068.84;;;13.32;58.98
9281;BME280;4679;47.966;7.958;2023-03-26T10:53:28;96066.91;;;13.14;59.25
9281;BME280;4679;47.966;7.958;2023-03-26T10:55:35;96072.25;;;12.90;59.62
9281;BME280;4679;47.966;7.958;2023-03-26T10:57:40;96065.81;;;12.96;59.33
9281;BME280;4679;47.966;7.958;2023-03-26T10:59:44;96071.69;;;12.93;59.47
9281;BME280;4679;47.966;7.958;2023-03-26T11:01:48;96061.38;;;13.11;59.19
9281;BME280;4679;47.966;7.958;2023-03-26T11:04:02;96056.16;;;13.62;57.67
9281;BME280;4679;47.966;7.958;2023-03-26T11:06:17;96056.88;;;13.86;57.38
9281;BME280;4679;47.966;7.958;2023-03-26T11:08:30;96059.66;;;14.14;56.40
9281;BME280;4679;47.966;7.958;2023-03-26T11:10:42;96057.16;;;14.36;55.76
9281;BME280;4679;47.966;7.958;2023-03-26T11:12:52;96053.75;;;14.49;55.97
9281;BME280;4679;47.966;7.958;2023-03-26T11:15:09;96053.34;;;14.56;55.68
9281;BME280;4679;47.966;7.958;2023-03-26T11:17:21;96032.50;;;14.71;55.10
9281;BME280;4679;47.966;7.958;2023-03-26T11:19:33;96044.25;;;14.98;54.63
9281;BME280;4679;47.966;7.958;2023-03-26T11:21:41;96036.25;;;14.98;54.29
9281;BME280;4679;47.966;7.958;2023-03-26T11:23:54;96033.28;;;14.99;54.27
9281;BME280;4679;47.966;7.958;2023-03-26T11:26:05;96032.09;;;14.51;55.35
9281;BME280;4679;47.966;7.958;2023-03-26T11:28:19;96027.28;;;14.20;55.51
9281;BME280;4679;47.966;7.958;2023-03-26T11:30:34;96025.34;;;14.07;55.35
9281;BME280;4679;47.966;7.958;2023-03-26T11:32:43;96027.28;;;13.88;55.36
9281;BME280;4679;47.966;7.958;2023-03-26T11:34:53;96040.78;;;13.59;55.48
9281;BME280;4679;47.966;7.958;2023-03-26T11:36:58;96032.91;;;13.49;55.33
9281;BME280;4679;47.966;7.958;2023-03-26T11:39:03;96032.03;;;13.34;55.41
9281;BME280;4679;47.966;7.958;2023-03-26T11:41:11;96050.28;;;13.27;55.38
9281;BME280;4679;47.966;7.958;2023-03-26T11:43:13;96055.94;;;13.21;55.56
9281;BME280;4679;47.966;7.958;2023-03-26T11:45:17;96053.44;;;13.06;55.23
9281;BME280;4679;47.966;7.958;2023-03-26T11:47:23;96078.41;;;12.86;55.71
9281;BME280;4679;47.966;7.958;2023-03-26T11:49:30;96068.00;;;12.65;55.33
9281;BME280;4679;47.966;7.958;2023-03-26T11:51:35;96093.78;;;12.41;55.93
9281;BME280;4679;47.966;7.958;2023-03-26T11:53:38;96141.31;;;12.19;56.08
9281;BME280;4679;47.966;7.958;2023-03-26T11:55:42;96118.72;;;11.72;56.23
9281;BME280;4679;47.966;7.958;2023-03-26T11:57:50;96112.00;;;11.36;57.38
9281;BME280;4679;47.966;7.958;2023-03-26T11:59:57;96129.38;;;11.13;57.05
9281;BME280;4679;47.966;7.958;2023-03-26T12:02:18;96126.28;;;10.80;58.25
9281;BME280;4679;47.966;7.958;2023-03-26T12:04:25;96134.03;;;10.36;58.64
9281;BME280;4679;47.966;7.958;2023-03-26T12:06:27;96138.25;;;10.07;59.13
9281;BME280;4679;47.966;7.958;2023-03-26T12:08:33;96174.75;;;9.79;59.93
9281;BME280;4679;47.966;7.958;2023-03-26T12:10:39;96186.28;;;9.38;61.09
9281;BME280;4679;47.966;7.958;2023-03-26T12:12:45;96194.38;;;8.74;61.91
9281;BME280;4679;47.966;7.958;2023-03-26T12:14:47;96190.22;;;8.46;62.69
9281;BME280;4679;47.966;7.958;2023-03-26T12:17:00;96169.25;;;8.34;63.20
9281;BME280;4679;47.966;7.958;2023-03-26T12:19:04;96139.81;;;8.26;63.57
9281;BME280;4679;47.966;7.958;2023-03-26T12:21:09;96118.66;;;8.26;63.74
9281;BME280;4679;47.966;7.958;2023-03-26T12:23:35;96101.09;;;8.36;63.78
9281;BME280;4679;47.966;7.958;2023-03-26T12:25:38;96091.09;;;8.49;63.85
9281;BME280;4679;47.966;7.958;2023-03-26T12:27:42;96093.34;;;8.67;63.49
9281;BME280;4679;47.966;7.958;2023-03-26T12:29:49;96081.84;;;9.03;63.29
9281;BME280;4679;47.966;7.958;2023-03-26T12:31:54;96079.50;;;9.12;63.26
9281;BME280;4679;47.966;7.958;2023-03-26T12:34:05;96079.78;;;9.15;63.61
9281;BME280;4679;47.966;7.958;2023-03-26T12:36:19;96065.50;;;9.16;63.55
9281;BME280;4679;47.966;7.958;2023-03-26T12:38:24;96073.72;;;9.15;63.58
9281;BME280;4679;47.966;7.958;2023-03-26T12:40:34;96063.63;;;9.17;64.30
9281;BME280;4679;47.966;7.958;2023-03-26T12:42:39;96058.09;;;9.18;64.36
9281;BME280;4679;47.966;7.958;2023-03-26T12:44:43;96050.94;;;9.19;64.52
9281;BME280;4679;47.966;7.958;2023-03-26T12:46:46;96047.50;;;9.18;64.64
9281;BME280;4679;47.966;7.958;2023-03-26T12:48:48;96050.94;;;9.19;64.33
9281;BME280;4679;47.966;7.958;2023-03-26T12:51:02;96031.91;;;9.22;64.32
9281;BME280;4679;47.966;7.958;2023-03-26T12:53:30;96031.66;;;9.29;64.39
9281;BME280;4679;47.966;7.958;2023-03-26T12:55:41;96034.03;;;9.25;64.82
9281;BME280;4679;47.966;7.958;2023-03-26T12:57:54;96035.38;;;9.28;64.57
9281;BME280;4679;47.966;7.958;2023-03-26T13:00:11;96030.59;;;9.35;64.56
9281;BME280;4679;47.966;7.958;2023-03-26T13:02:43;96036.97;;;9.44;64.53
9281;BME280;4679;47.966;7.958;2023-03-26T13:05:04;96032.75;;;9.58;64.34
9281;BME280;4679;47.966;7.958;2023-03-26T13:07:16;96023.75;;;9.64;64.88
9281;BME280;4679;47.966;7.958;2023-03-26T13:09:41;96017.41;;;9.70;64.64
9281;BME280;4679;47.966;7.958;2023-03-26T13:11:56;96007.84;;;9.79;64.13
9281;BME280;4679;47.966;7.958;2023-03-26T13:14:13;96010.50;;;9.95;64.53
9281;BME280;4679;47.966;7.958;2023-03-26T13:16:25;95985.06;;;10.04;63.50
9281;BME280;4679;47.966;7.958;2023-03-26T13:18:41;95980.25;;;10.11;63.37
9281;BME280;4679;47.966;7.958;2023-03-26T13:20:48;95977.63;;;10.21;64.41
9281;BME280;4679;47.966;7.958;2023-03-26T13:22:58;95978.63;;;10.40;63.32
9281;BME280;4679;47.966;7.958;2023-03-26T13:25:08;95977.22;;;10.68;nan
9281;BME280;4679;47.966;7.958;2023-03-26T13:27:24;95968.78;;;11.10;62.94
9281;BME280;4679;47.966;7.958;2023-03-26T13:29:35;95960.59;;;11.41;61.58
9281;BME280;4679;47.966;7.958;2023-03-26T13:31:44;95957.66;;;11.42;62.47
9281;BME280;4679;47.966;7.958;2023-03-26T13:33:55;95958.41;;;11.87;61.07
9281;BME280;4679;47.966;7.958;2023-03-26T13:36:04;95942.34;;;11.97;61.88
9281;BME280;4679;47.966;7.958;2023-03-26T13:38:12;95951.38;;;11.96;61.86
9281;BME280;4679;47.966;7.958;2023-03-26T13:40:21;95943.25;;;12.11;61.18
9281;BME280;4679;47.966;7.958;2023-03-26T13:42:36;95950.03;;;11.98;61.21
9281;BME280;4679;47.966;7.958;2023-03-26T13:44:51;95947.81;;;11.82;62.07
9281;BME280;4679;47.966;7.958;2023-03-26T13:47:00;95924.50;;;11.69;61.66
9281;BME280;4679;47.966;7.958;2023-03-26T13:49:07;95922.25;;;11.52;61.66
9281;BME280;4679;47.966;7.958;2023-03-26T13:51:16;95905.34;;;11.43;62.80
9281;BME280;4679;47.966;7.958;2023-03-26T13:53:22;95887.03;;;11.41;62.24
9281;BME280;4679;47.966;7.958;2023-03-26T13:55:27;95879.88;;;11.37;62.53
9281;BME280;4679;47.966;7.958;2023-03-26T13:57:36;95892.72;;;11.30;62.07
9281;BME280;4679;47.966;7.958;2023-03-26T13:59:43;95900.97;;;11.23;63.25
9281;BME280;4679;47.966;7.958;2023-03-26T14:01:51;95937.38;;;11.17;62.63
9281;BME280;4679;47.966;7.958;2023-03-26T14:03:58;95973.00;;;11.11;63.08
9281;BME280;4679;47.966;7.958;2023-03-26T14:06:05;96046.16;;;10.73;63.25
9281;BME280;4679;47.966;7.958;2023-03-26T14:08:13;96094.50;;;9.89;64.70
9281;BME280;4679;47.966;7.958;2023-03-26T14:10:20;96102.28;;;9.13;65.90
9281;BME280;4679;47.966;7.958;2023-03-26T14:12:32;96101.22;;;8.62;67.03
9281;BME280;4679;47.966;7.958;2023-03-26T14:14:42;96134.81;;;8.29;67.54
9281;BME280;4679;47.966;7.958;2023-03-26T14:16:49;96135.97;;;8.06;68.24
9281;BME280;4679;47.966;7.958;2023-03-26T14:18:56;96118.88;;;7.87;68.92
9281;BME280;4679;47.966;7.958;2023-03-26T14:24:03;96106.66;;;7.76;69.00
9281;BME280;4679;47.966;7.958;2023-03-26T14:26:20;96105.34;;;7.79;69.48
9281;BME280;4679;47.966;7.958;2023-03-26T14:29:08;96110.88;;;7.77;69.50
9281;BME280;4679;47.966;7.958;2023-03-26T14:31:20;96110.81;;;7.72;69.52
9281;BME280;4679;47.966;7.958;2023-03-26T14:33:43;96109.00;;;7.72;69.76
9281;BME280;4679;47.966;7.958;2023-03-26T14:35:51;96106.53;;;7.66;69.42
9281;BME280;4679;47.966;7.958;2023-03-26T14:38:22;96096.34;;;7.74;69.56
9281;BME280;4679;47.966;7.958;2023-03-26T14:40:51;96086.66;;;7.85;70.09
9281;BME280;4679;47.966;7.958;2023-03-26T14:43:11;96078.56;;;7.97;69.51
9281;BME280;4679;47.966;7.958;2023-03-26T14:45:40;96074.44;;;8.11;69.70
9281;BME280;4679;47.966;7.958;2023-03-26T14:48:03;96070.31;;;8.25;69.51
9281;BME280;4679;47.966;7.958;2023-03-26T14:52:47;96061.91;;;8.75;68.51
9281;BME280;4679;47.966;7.958;2023-03-26T14:54:52;96061.41;;;8.84;68.58
9281;BME280;4679;47.966;7.958;2023-03-26T14:57:22;96060.09;;;8.86;68.87
9281;BME280;4679;47.966;7.958;2023-03-26T15:00:00;96060.13;;;9.01;69.00
9281;BME280;4679;47.966;7.958;2023-03-26T15:05:36;96071.53;;;9.07;69.00
9281;BME280;4679;47.966;7.958;2023-03-26T15:07:57;96066.50;;;9.05;69.08
9281;BME280;4679;47.966;7.958;2023-03-26T15:10:34;96060.16;;;9.06;69.41
9281;BME280;4679;47.966;7.958;2023-03-26T15:12:50;96058.59;;;9.10;69.01
9281;BME280;4679;47.966;7.958;2023-03-26T15:15:23;96045.44;;;9.41;68.64
9281;BME280;4679;47.966;7.958;2023-03-26T15:17:59;96058.66;;;9.36;69.02
9281;BME280;4679;47.966;7.958;2023-03-26T15:20:31;96056.00;;;9.26;70.30
9281;BME280;4679;47.966;7.958;2023-03-26T15:23:02;96054.94;;;9.27;69.75
9281;BME280;4679;47.966;7.958;2023-03-26T15:25:41;96059.41;;;9.21;69.36
9281;BME280;4679;47.966;7.958;2023-03-26T15:28:05;96047.50;;;9.13;69.84
9281;BME280;4679;47.966;7.958;2023-03-26T15:36:04;96032.06;;;8.90;70.06
9281;BME280;4679;47.966;7.958;2023-03-26T15:41:08;96021.94;;;8.72;70.34
9281;BME280;4679;47.966;7.958;2023-03-26T15:43:18;96021.69;;;8.68;70.19
9281;BME280;4679;47.966;7.958;2023-03-26T15:45:29;96030.88;;;8.61;70.40
9281;BME280;4679;47.966;7.958;2023-03-26T15:47:49;96032.72;;;8.55;70.50
9281;BME280;4679;47.966;7.958;2023-03-26T15:50:01;96037.47;;;8.53;70.08
9281;BME280;4679;47.966;7.958;2023-03-26T15:52:18;96043.56;;;8.54;70.25
9281;BME280;4679;47.966;7.958;2023-03-26T15:54:27;96033.50;;;8.51;70.46
9281;BME280;4679;47.966;7.958;2023-03-26T15:59:17;96044.28;;;8.44;70.09
9281;BME280;4679;47.966;7.958;2023-03-26T16:01:40;96056.69;;;8.43;70.33
9281;BME280;4679;47.966;7.958;2023-03-26T16:03:52;96051.66;;;8.42;70.28
9281;BME280;4679;47.966;7.958;2023-03-26T16:06:16;96049.56;;;8.39;69.99
9281;BME280;4679;47.966;7.958;2023-03-26T16:08:32;96044.78;;;8.36;69.51
9281;BME280;4679;47.966;7.958;2023-03-26T16:10:43;96045.03;;;8.34;70.11
9281;BME280;4679;47.966;7.958;2023-03-26T16:12:55;96043.97;;;8.35;69.43
9281;BME280;4679;47.966;7.958;2023-03-26T16:15:26;96051.91;;;8.35;69.50
9281;BME280;4679;47.966;7.958;2023-03-26T16:20:18;96069.38;;;8.36;69.29
9281;BME280;4679;47.966;7.958;2023-03-26T16:22:40;96063.81;;;8.38;69.13
9281;BME280;4679;47.966;7.958;2023-03-26T16:24:44;96070.97;;;8.37;68.84
9281;BME280;4679;47.966;7.958;2023-03-26T16:26:58;96076.50;;;8.36;68.98
9281;BME280;4679;47.966;7.958;2023-03-26T16:29:14;96076.50;;;8.36;69.15
9281;BME280;4679;47.966;7.958;2023-03-26T16:31:26;96085.72;;;8.33;68.78
9281;BME280;4679;47.966;7.958;2023-03-26T16:33:35;96078.28;;;8.30;68.73
9281;BME280;4679;47.966;7.958;2023-03-26T16:36:05;96083.25;;;8.27;68.64
9281;BME280;4679;47.966;7.958;2023-03-26T16:38:18;96083.81;;;8.29;68.63
9281;BME280;4679;47.966;7.958;2023-03-26T16:40:31;96077.47;;;8.30;68.57
9281;BME280;4679;47.966;7.958;2023-03-26T16:42:36;96073.22;;;8.29;67.92
9281;BME280;4679;47.966;7.958;2023-03-26T16:44:42;96080.13;;;8.30;68.09
9281;BME280;4679;47.966;7.958;2023-03-26T16:46:54;96073.78;;;8.31;68.40
9281;BME280;4679;47.966;7.958;2023-03-26T16:49:02;96060.81;;;8.29;68.16
9281;BME280;4679;47.966;7.958;2023-03-26T16:51:13;96071.38;;;8.29;68.08
9281;BME280;4679;47.966;7.958;2023-03-26T16:53:25;96056.03;;;8.26;68.05
9281;BME280;4679;47.966;7.958;2023-03-26T16:55:39;96058.16;;;8.24;68.26
9281;BME280;4679;47.966;7.958;2023-03-26T16:57:48;96049.69;;;8.22;68.05
9281;BME280;4679;47.966;7.958;2023-03-26T17:00:04;96059.47;;;8.22;68.10
9281;BME280;4679;47.966;7.958;2023-03-26T17:02:24;96064.75;;;8.22;68.15
9281;BME280;4679;47.966;7.958;2023-03-26T17:04:29;96063.94;;;8.21;68.04
9281;BME280;4679;47.966;7.958;2023-03-26T17:06:50;96060.25;;;8.22;67.94
9281;BME280;4679;47.966;7.958;2023-03-26T17:09:02;96080.34;;;8.23;67.94
9281;BME280;4679;47.966;7.958;2023-03-26T17:11:18;96089.88;;;8.24;67.83
9281;BME280;4679;47.966;7.958;2023-03-26T17:13:26;96091.44;;;8.25;67.75
9281;BME280;4679;47.966;7.958;2023-03-26T17:15:39;96086.44;;;8.24;67.46
9281;BME280;4679;47.966;7.958;2023-03-26T17:20:25;96131.75;;;8.10;68.22
9281;BME280;4679;47.966;7.958;2023-03-26T17:22:38;96116.06;;;7.94;68.30
9281;BME280;4679;47.966;7.958;2023-03-26T17:24:47;96122.75;;;7.74;69.18
9281;BME280;4679;47.966;7.958;2023-03-26T17:26:55;96104.91;;;7.60;69.30
9281;BME280;4679;47.966;7.958;2023-03-26T17:29:07;96105.66;;;7.55;69.68
9281;BME280;4679;47.966;7.958;2023-03-26T17:31:17;96107.44;;;7.50;69.75
9281;BME280;4679;47.966;7.958;2023-03-26T17:33:27;96104.00;;;7.49;69.31
9281;BME280;4679;47.966;7.958;2023-03-26T17:35:39;96106.38;;;7.51;69.86
9281;BME280;4679;47.966;7.958;2023-03-26T17:37:44;96099.22;;;7.46;69.61
9281;BME280;4679;47.966;7.958;2023-03-26T17:42:25;96101.00;;;7.40;69.95
9281;BME280;4679;47.966;7.958;2023-03-26T17:44:39;96108.44;;;7.44;69.69
9281;BME280;4679;47.966;7.958;2023-03-26T17:46:43;96111.06;;;7.44;70.75
9281;BME280;4679;47.966;7.958;2023-03-26T17:48:53;96107.69;;;7.48;70.30
9281;BME280;4679;47.966;7.958;2023-03-26T17:51:01;96103.19;;;7.49;70.50
9281;BME280;4679;47.966;7.958;2023-03-26T17:53:09;96108.22;;;7.50;70.09
9281;BME280;4679;47.966;7.958;2023-03-26T17:55:16;96106.69;;;7.54;69.92
9281;BME280;4679;47.966;7.958;2023-03-26T17:57:20;96110.75;;;7.62;70.60
9281;BME280;4679;47.966;7.958;2023-03-26T17:59:24;96107.56;;;7.65;70.46
9281;BME280;4679;47.966;7.958;2023-03-26T18:01:31;96098.88;;;7.64;69.86
9281;BME280;4679;47.966;7.958;2023-03-26T18:03:39;96102.84;;;7.67;70.75
9281;BME280;4679;47.966;7.958;2023-03-26T18:05:45;96102.59;;;7.68;70.75
9281;BME280;4679;47.966;7.958;2023-03-26T18:08:31;96102.91;;;7.72;69.91
9281;BME280;4679;47.966;7.958;2023-03-26T18:11:02;96099.47;;;7.71;70.51
9281;BME280;4679;47.966;7.958;2023-03-26T18:13:20;96097.38;;;7.73;70.58
9281;BME280;4679;47.966;7.958;2023-03-26T18:15:33;96101.38;;;7.76;70.38
9281;BME280;4679;47.966;7.958;2023-03-26T18:17:42;96102.09;;;7.71;70.45
9281;BME280;4679;47.966;7.958;2023-03-26T18:19:46;96097.88;;;7.70;70.33
9281;BME280;4679;47.966;7.958;2023-03-26T18:21:50;96101.56;;;7.69;70.62
9281;BME280;4679;47.966;7.958;2023-03-26T18:23:54;96092.28;;;7.67;70.31
9281;BME280;4679;47.966;7.958;2023-03-26T18:25:57;96087.81;;;7.67;70.47
9281;BME280;4679;47.966;7.958;2023-03-26T18:27:59;96089.66;;;7.67;70.29
9281;BME280;4679;47.966;7.958;2023-03-26T18:30:12;96088.84;;;7.66;69.93
9281;BME280;4679;47.966;7.958;2023-03-26T18:32:19;96093.88;;;7.68;70.03
9281;BME280;4679;47.966;7.958;2023-03-26T18:34:23;96094.69;;;7.68;70.26
9281;BME280;4679;47.966;7.958;2023-03-26T18:36:26;96089.66;;;7.67;70.25
9281;BME280;4679;47.966;7.958;2023-03-26T18:38:30;96084.13;;;7.68;70.71
9281;BME280;4679;47.966;7.958;2023-03-26T18:40:39;96086.75;;;7.68;70.08
9281;BME280;4679;47.966;7.958;2023-03-26T18:42:44;96092.84;;;7.69;70.85
9281;BME280;4679;47.966;7.958;2023-03-26T18:44:47;96083.88;;;7.70;70.01
9281;BME280;4679;47.966;7.958;2023-03-26T18:46:51;96089.16;;;7.70;70.68
9281;BME280;4679;47.966;7.958;2023-03-26T18:48:54;96092.84;;;7.69;70.89
9281;BME280;4679;47.966;7.958;2023-03-26T18:50:59;96091.25;;;7.68;70.02
9281;BME280;4679;47.966;7.958;2023-03-26T18:53:05;96085.16;;;7.67;70.06
9281;BME280;4679;47.966;7.958;2023-03-26T18:55:12;96083.31;;;7.63;70.15
9281;BME280;4679;47.966;7.958;2023-03-26T18:57:20;96079.34;;;7.65;70.58
9281;BME280;4679;47.966;7.958;2023-03-26T18:59:25;96079.09;;;7.67;70.75
9281;BME280;4679;47.966;7.958;2023-03-26T19:01:29;96070.69;;;7.70;70.62
9281;BME280;4679;47.966;7.958;2023-03-26T19:03:34;96062.97;;;7.63;70.40
9281;BME280;4679;47.966;7.958;2023-03-26T19:05:36;96062.38;;;7.56;70.74
9281;BME280;4679;47.966;7.958;2023-03-26T19:07:38;96062.84;;;7.48;71.20
9281;BME280;4679;47.966;7.958;2023-03-26T19:09:41;96071.25;;;7.45;70.32
9281;BME280;4679;47.966;7.958;2023-03-26T19:11:43;96066.72;;;7.40;71.09
9281;BME280;4679;47.966;7.958;2023-03-26T19:13:58;96066.16;;;7.38;71.13
9281;BME280;4679;47.966;7.958;2023-03-26T19:16:07;96064.56;;;7.37;71.97
9281;BME280;4679;47.966;7.958;2023-03-26T19:18:15;96062.22;;;7.41;71.67
9281;BME280;4679;47.966;7.958;2023-03-26T19:20:20;96060.69;;;7.45;71.80
9281;BME280;4679;47.966;7.958;2023-03-26T19:22:23;96059.09;;;7.44;72.05
9281;BME280;4679;47.966;7.958;2023-03-26T19:24:26;96058.06;;;7.45;71.63
9281;BME280;4679;47.966;7.958;2023-03-26T19:26:27;96062.28;;;7.46;72.29
9281;BME280;4679;47.966;7.958;2023-03-26T19:28:30;96058.53;;;7.42;72.42
9281;BME280;4679;47.966;7.958;2023-03-26T19:30:38;96056.94;;;7.41;72.24
9281;BME280;4679;47.966;7.958;2023-03-26T19:32:51;96076.47;;;7.40;72.25
9281;BME280;4679;47.966;7.958;2023-03-26T19:34:52;96075.13;;;7.37;72.23
9281;BME280;4679;47.966;7.958;2023-03-26T19:36:56;96080.06;;;7.29;71.84
9281;BME280;4679;47.966;7.958;2023-03-26T19:39:10;96085.75;;;7.21;73.38
9281;BME280;4679;47.966;7.958;2023-03-26T19:41:17;96091.03;;;7.21;72.50
9281;BME280;4679;47.966;7.958;2023-03-26T19:43:21;96086.78;;;7.20;72.70
9281;BME280;4679;47.966;7.958;2023-03-26T19:45:23;96092.28;;;7.13;72.57
9281;BME280;4679;47.966;7.958;2023-03-26T19:47:38;96098.22;;;7.03;73.45
9281;BME280;4679;47.966;7.958;2023-03-26T19:49:47;96102.34;;;6.94;74.10
9281;BME280;4679;47.966;7.958;2023-03-26T19:51:49;96095.13;;;6.85;73.43
9281;BME280;4679;47.966;7.958;2023-03-26T19:53:53;96091.03;;;6.77;73.56
9281;BME280;4679;47.966;7.958;2023-03-26T19:55:57;96081.78;;;6.75;74.58
9281;BME280;4679;47.966;7.958;2023-03-26T19:57:59;96076.72;;;6.68;73.97
9281;BME280;4679;47.966;7.958;2023-03-26T20:00:00;96069.22;;;6.60;74.81
9281;BME280;4679;47.966;7.958;2023-03-26T20:02:09;96064.44;;;6.57;74.20
9281;BME280;4679;47.966;7.958;2023-03-26T20:04:12;96062.59;;;6.57;74.69
9281;BME280;4679;47.966;7.958;2023-03-26T20:06:15;96058.09;;;6.58;74.24
9281;BME280;4679;47.966;7.958;2023-03-26T20:08:18;96064.69;;;6.55;75.25
9281;BME280;4679;47.966;7.958;2023-03-26T20:10:26;96061.66;;;6.47;74.34
9281;BME280;4679;47.966;7.958;2023-03-26T20:12:28;96060.63;;;6.48;75.45
9281;BME280;4679;47.966;7.958;2023-03-26T20:14:30;96060.31;;;6.44;74.53
9281;BME280;4679;47.966;7.958;2023-03-26T20:16:33;96072.31;;;6.35;74.42
9281;BME280;4679;47.966;7.958;2023-03-26T20:18:34;96069.19;;;6.38;75.56